Time;durP1;ratioP1;P1;durP2;ratioP2;P2;SDS_P1;SDS_P2;PMS_P1;PMS_P2;Temp;Humidity;BMP_temperature;BMP_pressure;BME280_temperature;BME280_humidity;BME280_pressure;Samples;Min_cycle;Max_cycle;Signal;HPM_P1;HPM_P2
2023/10/15 00:01:59;;;;;;;5.43;2.53;;;11.20;69.50;;;;;;4974910;28;20081;-58
2023/10/15 00:04:26;;;;;;;5.97;2.45;;;11.20;69.60;;;;;;4972442;28;20390;-52
2023/10/15 00:06:53;;;;;;;3.88;2.42;;;11.20;69.70;;;;;;4973546;28;20049;-55
2023/10/15 00:09:20;;;;;;;3.53;1.75;;;11.20;70.30;;;;;;4975026;28;20404;-55
2023/10/15 00:11:51;;;;;;;4.85;2.00;;;11.20;69.70;;;;;;4973821;28;20409;-55
2023/10/15 00:14:17;;;;;;;5.00;2.80;;;11.10;69.60;;;;;;4975378;28;20089;-55
2023/10/15 00:16:44;;;;;;;5.25;2.58;;;11.10;69.60;;;;;;4970128;28;20609;-57
2023/10/15 00:19:11;;;;;;;4.25;2.00;;;11.10;69.60;;;;;;4974403;28;20042;-55
2023/10/15 00:21:38;;;;;;;5.72;2.53;;;11.10;69.60;;;;;;4972937;28;20046;-57
2023/10/15 00:24:07;;;;;;;6.05;2.72;;;11.10;69.60;;;;;;4974729;28;20456;-55
2023/10/15 00:26:35;;;;;;;6.82;2.60;;;11.10;69.60;;;;;;4970979;28;20121;-55
2023/10/15 00:29:07;;;;;;;5.32;2.20;;;11.10;69.80;;;;;;4976178;28;20070;-59
2023/10/15 00:31:38;;;;;;;6.20;2.78;;;11.00;69.80;;;;;;4978818;28;20114;-55
2023/10/15 00:34:12;;;;;;;2.85;2.20;;;11.10;69.80;;;;;;4969126;28;20043;-55
2023/10/15 00:36:39;;;;;;;6.13;2.70;;;11.10;69.80;;;;;;4970999;28;20627;-56
2023/10/15 00:39:19;;;;;;;5.72;2.58;;;11.10;69.90;;;;;;4958384;28;20065;-55
2023/10/15 00:41:50;;;;;;;5.93;2.42;;;11.00;69.80;;;;;;4972747;28;20575;-55
2023/10/15 00:44:17;;;;;;;6.43;3.05;;;11.00;70.00;;;;;;4968008;28;20034;-56
2023/10/15 00:46:54;;;;;;;6.20;2.15;;;11.00;70.00;;;;;;4970008;28;20149;-57
2023/10/15 00:49:25;;;;;;;6.72;2.45;;;11.00;70.00;;;;;;4973043;28;20038;-57
2023/10/15 00:51:52;;;;;;;3.70;2.40;;;11.00;70.10;;;;;;4953775;28;20043;-57
2023/10/15 00:54:19;;;;;;;5.43;2.97;;;11.00;70.10;;;;;;4952424;28;20565;-55
2023/10/15 00:56:50;;;;;;;3.85;2.63;;;11.00;70.20;;;;;;4963522;28;20049;-58
2023/10/15 00:59:18;;;;;;;9.35;2.97;;;11.00;70.30;;;;;;4954930;28;20114;-54
2023/10/15 01:01:54;;;;;;;4.55;3.00;;;11.00;70.30;;;;;;4971657;28;20122;-55
2023/10/15 01:04:25;;;;;;;7.40;3.17;;;11.00;70.30;;;;;;4955470;28;20046;-55
2023/10/15 01:07:00;;;;;;;4.82;2.65;;;11.00;70.30;;;;;;4971488;28;20449;-54
2023/10/15 01:09:30;;;;;;;7.93;2.92;;;11.00;70.30;;;;;;4955243;28;20108;-57
2023/10/15 01:12:18;;;;;;;7.40;3.10;;;10.90;70.30;;;;;;4971140;28;20042;-57
2023/10/15 01:14:45;;;;;;;3.15;2.65;;;11.00;70.40;;;;;;4966010;28;20074;-52
2023/10/15 01:17:12;;;;;;;5.13;3.25;;;10.90;70.30;;;;;;4953918;28;20103;-57
2023/10/15 01:19:39;;;;;;;5.88;2.65;;;10.90;70.30;;;;;;4953218;28;20473;-55
2023/10/15 01:22:08;;;;;;;7.20;3.13;;;10.90;70.50;;;;;;4952843;28;20445;-56
2023/10/15 01:24:37;;;;;;;7.85;2.65;;;10.90;70.60;;;;;;4971816;28;20586;-55
2023/10/15 01:27:10;;;;;;;4.80;3.03;;;10.90;70.60;;;;;;4975124;28;20081;-58
2023/10/15 01:29:42;;;;;;;5.53;3.33;;;10.90;70.70;;;;;;4971711;28;20051;-55
2023/10/15 01:32:22;;;;;;;5.60;2.58;;;10.90;70.80;;;;;;4952814;28;20045;-55
2023/10/15 01:34:50;;;;;;;7.72;3.50;;;10.90;70.70;;;;;;4967312;28;20047;-55
2023/10/15 01:39:53;;;;;;;;;;;10.90;70.80;;;;;;4976802;28;20042;-51
2023/10/15 01:47:54;;;;;;;7.40;3.00;;;11.00;70.80;;;;;;4982938;28;20050;-55
2023/10/15 01:50:23;;;;;;;7.55;3.20;;;11.00;70.90;;;;;;4974703;28;20051;-56
2023/10/15 01:52:55;;;;;;;5.97;2.60;;;11.00;71.00;;;;;;4960764;28;20081;-57
2023/10/15 01:55:28;;;;;;;5.88;2.95;;;11.00;71.20;;;;;;4983252;28;20714;-56
2023/10/15 01:58:01;;;;;;;6.18;3.42;;;11.00;71.20;;;;;;4977929;28;20397;-54
2023/10/15 02:03:10;;;;;;;5.35;3.10;;;11.10;71.20;;;;;;4985829;28;20118;-53
2023/10/15 02:05:42;;;;;;;6.97;2.88;;;11.20;71.10;;;;;;4989450;28;20046;-54
2023/10/15 02:08:12;;;;;;;6.07;3.58;;;11.20;71.10;;;;;;4979630;28;20130;-55
2023/10/15 02:10:46;;;;;;;5.32;2.13;;;11.20;70.90;;;;;;4979819;28;20561;-51
2023/10/15 02:13:16;;;;;;;8.88;3.13;;;11.20;70.90;;;;;;4987250;28;20125;-54
2023/10/15 02:15:43;;;;;;;5.90;3.05;;;11.20;70.90;;;;;;4971010;28;20125;-53
2023/10/15 02:18:14;;;;;;;5.05;3.05;;;11.30;70.90;;;;;;4960413;28;20039;-55
2023/10/15 02:23:19;;;;;;;6.00;2.83;;;11.30;70.80;;;;;;4987393;28;20050;-54
2023/10/15 02:25:56;;;;;;;6.03;3.13;;;11.40;70.80;;;;;;4963108;28;20050;-53
2023/10/15 02:28:26;;;;;;;5.68;3.03;;;11.40;70.60;;;;;;4978286;28;20050;-53
2023/10/15 02:31:10;;;;;;;6.53;2.70;;;11.40;70.70;;;;;;4987335;28;20500;-55
2023/10/15 02:33:38;;;;;;;6.10;3.90;;;11.40;70.80;;;;;;4988052;28;20038;-54
2023/10/15 02:36:09;;;;;;;6.13;2.90;;;11.40;70.60;;;;;;4956310;28;20035;-55
2023/10/15 02:38:38;;;;;;;3.83;3.22;;;11.40;70.50;;;;;;4985427;28;20066;-55
2023/10/15 02:41:08;;;;;;;9.63;3.63;;;11.40;70.60;;;;;;4957399;28;20063;-55
2023/10/15 02:43:48;;;;;;;5.60;2.70;;;11.40;70.40;;;;;;4962687;28;20051;-56
2023/10/15 02:46:22;;;;;;;7.95;3.05;;;11.40;70.40;;;;;;4982247;28;20048;-54
2023/10/15 02:48:53;;;;;;;4.78;2.70;;;11.40;70.60;;;;;;4969720;28;20533;-55
2023/10/15 02:51:23;;;;;;;3.97;2.60;;;11.40;70.70;;;;;;4985986;28;20070;-56
2023/10/15 02:53:55;;;;;;;4.68;3.33;;;11.40;70.80;;;;;;4973417;28;20515;-55
2023/10/15 02:56:28;;;;;;;3.03;1.85;;;11.50;71.00;;;;;;4973902;28;20570;-55
2023/10/15 02:58:55;;;;;;;3.58;2.50;;;11.40;70.60;;;;;;4965745;28;20066;-55
2023/10/15 03:01:23;;;;;;;3.17;2.28;;;11.50;70.40;;;;;;4957209;28;20054;-54
2023/10/15 03:03:52;;;;;;;3.38;1.88;;;11.50;70.60;;;;;;4989421;28;20038;-55
2023/10/15 03:06:34;;;;;;;4.97;2.65;;;11.50;70.60;;;;;;4965393;28;20050;-55
2023/10/15 03:09:11;;;;;;;4.55;2.70;;;11.50;70.60;;;;;;4982560;28;20046;-55
2023/10/15 03:11:38;;;;;;;7.03;2.53;;;11.50;70.40;;;;;;4965195;28;20046;-56
2023/10/15 03:14:06;;;;;;;4.68;2.85;;;11.50;70.30;;;;;;4988297;28;20085;-55
2023/10/15 03:16:33;;;;;;;3.20;2.83;;;11.60;70.50;;;;;;4970992;28;20451;-55
2023/10/15 03:19:17;;;;;;;5.88;2.50;;;11.60;70.50;;;;;;4977501;28;20092;-55
2023/10/15 03:21:43;;;;;;;6.53;2.85;;;11.60;70.50;;;;;;4979203;28;20100;-52
2023/10/15 03:24:14;;;;;;;8.68;2.65;;;11.60;70.60;;;;;;4970855;28;20788;-55
2023/10/15 03:26:47;;;;;;;3.33;2.57;;;11.50;70.60;;;;;;4973324;28;20038;-55
2023/10/15 03:29:14;;;;;;;2.50;2.03;;;11.50;70.60;;;;;;4982355;28;20050;-53
2023/10/15 03:31:48;;;;;;;4.10;2.40;;;11.60;70.70;;;;;;4988732;28;20560;-54
2023/10/15 03:34:21;;;;;;;4.70;2.63;;;11.60;70.80;;;;;;4981100;28;20046;-54
2023/10/15 03:36:58;;;;;;;4.13;2.15;;;11.60;70.90;;;;;;4990657;28;20046;-55
2023/10/15 03:39:25;;;;;;;5.00;2.60;;;11.60;70.90;;;;;;4986608;28;20039;-55
2023/10/15 03:41:54;;;;;;;3.30;2.60;;;11.60;70.80;;;;;;4986987;28;20046;-55
2023/10/15 03:44:27;;;;;;;5.05;2.92;;;11.60;70.90;;;;;;4982445;28;20135;-55
2023/10/15 03:47:04;;;;;;;4.90;2.55;;;11.60;70.90;;;;;;4988502;28;20042;-53
2023/10/15 03:49:35;;;;;;;3.92;2.70;;;11.70;71.10;;;;;;4987059;28;20101;-55
2023/10/15 03:52:14;;;;;;;5.53;2.17;;;11.70;71.10;;;;;;4958957;28;20070;-56
2023/10/15 03:54:47;;;;;;;3.88;2.13;;;11.70;71.20;;;;;;4982988;28;20042;-53
2023/10/15 03:57:18;;;;;;;2.72;1.95;;;11.70;71.20;;;;;;4979497;28;20066;-56
2023/10/15 03:59:51;;;;;;;3.60;2.42;;;11.70;71.00;;;;;;4965353;28;20493;-54
2023/10/15 04:02:29;;;;;;;4.97;2.97;;;11.70;70.70;;;;;;4979077;28;20058;-55
2023/10/15 04:05:01;;;;;;;3.70;2.22;;;11.70;70.70;;;;;;4981970;28;20050;-52
2023/10/15 04:07:31;;;;;;;2.90;1.88;;;11.70;70.50;;;;;;4976902;28;20065;-55
2023/10/15 04:09:58;;;;;;;3.67;1.83;;;11.70;70.10;;;;;;4983135;28;20042;-54
2023/10/15 04:12:27;;;;;;;2.58;1.52;;;11.70;70.00;;;;;;4980501;28;20038;-55
2023/10/15 04:14:56;;;;;;;3.97;1.90;;;11.60;69.90;;;;;;4985682;28;20483;-55
2023/10/15 04:17:25;;;;;;;5.72;2.40;;;11.50;69.90;;;;;;4984017;28;20042;-55
2023/10/15 04:19:55;;;;;;;4.05;1.83;;;11.50;70.10;;;;;;4986854;28;20107;-55
2023/10/15 04:22:22;;;;;;;2.47;1.80;;;11.50;70.30;;;;;;4962393;28;20149;-55
2023/10/15 04:24:50;;;;;;;3.35;1.45;;;11.50;70.60;;;;;;4974381;28;20531;-54
2023/10/15 04:27:24;;;;;;;3.72;2.05;;;11.50;70.60;;;;;;4977400;28;20065;-55
2023/10/15 04:29:55;;;;;;;1.95;1.35;;;11.50;70.60;;;;;;4978599;28;20042;-57
2023/10/15 04:32:45;;;;;;;2.17;1.55;;;11.50;70.60;;;;;;4983240;28;20061;-56
2023/10/15 04:35:11;;;;;;;3.70;1.83;;;11.50;70.50;;;;;;4975912;28;20038;-56
2023/10/15 04:37:38;;;;;;;3.55;1.77;;;11.50;70.60;;;;;;4983432;28;20050;-55
2023/10/15 04:40:06;;;;;;;3.90;2.60;;;11.50;70.70;;;;;;4986443;28;20563;-56
2023/10/15 04:42:51;;;;;;;3.45;2.13;;;11.50;70.80;;;;;;4975383;28;20485;-57
2023/10/15 04:45:20;;;;;;;4.70;2.47;;;11.50;70.90;;;;;;4979673;28;20101;-57
2023/10/15 04:47:52;;;;;;;3.55;2.60;;;11.50;70.90;;;;;;4977171;28;20043;-55
2023/10/15 04:50:20;;;;;;;4.53;2.60;;;11.50;71.10;;;;;;4974213;28;20649;-55
2023/10/15 04:52:46;;;;;;;7.03;2.85;;;11.50;71.10;;;;;;4979132;28;20035;-54
2023/10/15 04:55:16;;;;;;;4.30;2.80;;;11.60;71.30;;;;;;4982410;28;20038;-55
2023/10/15 04:57:45;;;;;;;6.13;3.60;;;11.50;71.20;;;;;;4982042;28;20042;-54
2023/10/15 05:00:12;;;;;;;6.20;3.50;;;11.60;71.80;;;;;;4984380;28;20093;-58
2023/10/15 05:02:40;;;;;;;5.57;3.70;;;11.60;71.00;;;;;;4983186;28;20050;-55
2023/10/15 05:05:07;;;;;;;4.13;3.38;;;11.60;70.90;;;;;;4979283;28;20054;-55
2023/10/15 05:07:36;;;;;;;3.10;2.80;;;11.50;70.80;;;;;;4980238;28;20054;-55
2023/10/15 05:10:03;;;;;;;3.50;3.20;;;11.50;71.10;;;;;;4985132;28;20042;-54
2023/10/15 05:12:31;;;;;;;5.30;3.25;;;11.50;71.10;;;;;;4976174;28;20046;-53
2023/10/15 05:14:58;;;;;;;5.18;3.30;;;11.50;71.40;;;;;;4982377;28;20042;-53
2023/10/15 05:17:25;;;;;;;3.20;2.25;;;11.50;71.40;;;;;;4980674;28;20524;-55
2023/10/15 05:19:53;;;;;;;1.77;1.45;;;11.60;71.10;;;;;;4979109;28;20081;-56
2023/10/15 05:22:20;;;;;;;2.15;1.45;;;11.50;70.70;;;;;;4973839;28;20101;-56
2023/10/15 05:24:47;;;;;;;1.63;1.00;;;11.50;70.40;;;;;;4983436;28;20459;-56
2023/10/15 05:27:14;;;;;;;2.55;1.02;;;11.40;70.70;;;;;;4976433;28;20058;-56
2023/10/15 05:29:41;;;;;;;1.60;0.93;;;11.40;70.80;;;;;;4973359;28;20121;-58
2023/10/15 05:32:07;;;;;;;1.35;0.90;;;11.30;70.80;;;;;;4982366;28;20125;-59
2023/10/15 05:34:34;;;;;;;1.33;0.70;;;11.20;71.20;;;;;;4980614;28;20445;-58
2023/10/15 05:37:02;;;;;;;1.80;1.02;;;11.20;71.70;;;;;;4980284;28;20101;-57
2023/10/15 05:39:28;;;;;;;1.38;0.82;;;11.10;71.90;;;;;;4970529;28;20046;-58
2023/10/15 05:41:55;;;;;;;1.13;0.82;;;11.00;72.40;;;;;;4982932;28;20046;-56
2023/10/15 05:44:22;;;;;;;0.95;0.60;;;11.00;72.90;;;;;;4980894;28;20138;-55
2023/10/15 05:46:49;;;;;;;2.05;0.80;;;10.90;73.10;;;;;;4975141;28;20054;-58
2023/10/15 05:49:15;;;;;;;2.28;0.80;;;10.90;73.30;;;;;;4983253;28;20145;-56
2023/10/15 05:51:42;;;;;;;1.45;0.80;;;10.80;73.40;;;;;;4980270;28;20752;-57
2023/10/15 05:54:09;;;;;;;3.53;0.80;;;10.80;73.80;;;;;;4982687;28;20470;-58
2023/10/15 05:56:36;;;;;;;1.05;0.98;;;10.80;74.20;;;;;;4970485;28;20046;-58
2023/10/15 05:59:05;;;;;;;1.70;0.70;;;10.80;74.20;;;;;;4983169;28;20121;-59
2023/10/15 06:01:34;;;;;;;0.80;0.80;;;10.80;74.30;;;;;;4977798;28;20412;-55
2023/10/15 06:04:02;;;;;;;1.48;0.90;;;10.80;74.30;;;;;;4975444;28;20113;-57
2023/10/15 06:06:29;;;;;;;3.72;1.35;;;10.70;74.10;;;;;;4976220;28;20055;-57
2023/10/15 06:08:59;;;;;;;2.42;1.10;;;10.70;74.00;;;;;;4982263;28;20073;-55
2023/10/15 06:11:26;;;;;;;2.15;1.40;;;10.70;74.10;;;;;;4976077;28;20101;-55
2023/10/15 06:13:52;;;;;;;2.58;1.70;;;10.70;74.40;;;;;;4971702;28;20118;-56
2023/10/15 06:16:19;;;;;;;1.98;1.42;;;10.60;74.80;;;;;;4973976;28;20057;-54
2023/10/15 06:18:46;;;;;;;2.33;1.42;;;10.60;75.00;;;;;;4981168;28;20081;-58
2023/10/15 06:21:14;;;;;;;2.78;1.88;;;10.60;75.20;;;;;;4979734;28;20050;-55
2023/10/15 06:23:41;;;;;;;2.75;1.45;;;10.60;75.20;;;;;;4971297;28;20046;-56
2023/10/15 06:26:08;;;;;;;3.10;1.60;;;10.60;75.20;;;;;;4971334;28;20057;-54
2023/10/15 06:28:35;;;;;;;3.13;2.38;;;10.70;75.40;;;;;;4981021;28;20532;-57
2023/10/15 06:31:02;;;;;;;2.55;2.10;;;10.60;75.30;;;;;;4983192;28;20458;-55
2023/10/15 06:33:29;;;;;;;2.95;2.30;;;10.70;75.40;;;;;;4976238;28;20057;-55
2023/10/15 06:35:57;;;;;;;3.22;2.30;;;10.60;75.50;;;;;;4975400;28;20042;-55
2023/10/15 06:38:25;;;;;;;2.80;2.17;;;10.70;75.90;;;;;;4977028;28;20050;-55
2023/10/15 06:40:54;;;;;;;4.15;2.60;;;10.70;76.30;;;;;;4975885;28;20564;-54
2023/10/15 06:43:23;;;;;;;2.85;2.38;;;10.70;76.60;;;;;;4985125;28;20046;-53
2023/10/15 06:45:52;;;;;;;3.53;2.38;;;10.70;76.70;;;;;;4983489;28;20066;-55
2023/10/15 06:48:22;;;;;;;4.63;2.65;;;10.80;77.00;;;;;;4978615;28;20046;-52
2023/10/15 06:50:49;;;;;;;3.35;2.42;;;10.80;76.90;;;;;;4972255;28;20520;-55
2023/10/15 06:53:16;;;;;;;2.90;2.60;;;10.90;76.90;;;;;;4966219;28;20081;-54
2023/10/15 06:55:45;;;;;;;3.33;2.40;;;10.90;77.10;;;;;;4957079;28;20049;-57
2023/10/15 06:58:12;;;;;;;2.75;2.55;;;10.90;77.20;;;;;;4971737;28;20042;-57
2023/10/15 07:00:39;;;;;;;6.22;3.10;;;11.00;77.00;;;;;;4971751;28;20114;-52
2023/10/15 07:03:05;;;;;;;5.72;3.67;;;11.00;76.80;;;;;;4974127;28;20047;-54
2023/10/15 07:05:32;;;;;;;3.78;3.50;;;11.00;76.50;;;;;;4973315;28;20050;-55
2023/10/15 07:08:00;;;;;;;3.42;3.13;;;11.00;76.30;;;;;;4974241;28;20050;-52
2023/10/15 07:10:27;;;;;;;5.00;3.65;;;11.00;76.10;;;;;;4981226;28;20046;-55
2023/10/15 07:12:56;;;;;;;3.60;3.22;;;11.10;76.00;;;;;;4975998;28;20038;-53
2023/10/15 07:15:24;;;;;;;5.43;3.90;;;11.00;76.00;;;;;;4979200;28;20057;-56
2023/10/15 07:17:51;;;;;;;3.88;3.47;;;11.10;76.00;;;;;;4979783;28;20145;-53
2023/10/15 07:20:21;;;;;;;4.25;3.85;;;11.10;75.80;;;;;;4982357;28;20579;-56
2023/10/15 07:22:49;;;;;;;4.65;3.67;;;11.10;76.10;;;;;;4977691;28;20121;-52
2023/10/15 07:25:18;;;;;;;3.78;3.40;;;11.10;76.60;;;;;;4975741;28;20498;-58
2023/10/15 07:27:46;;;;;;;4.28;3.45;;;11.10;76.60;;;;;;4976137;28;20057;-57
2023/10/15 07:30:14;;;;;;;4.72;3.85;;;11.10;76.60;;;;;;4982516;28;20050;-57
2023/10/15 07:32:43;;;;;;;3.75;3.33;;;11.10;76.60;;;;;;4975188;28;20061;-53
2023/10/15 07:35:11;;;;;;;6.05;3.92;;;11.20;76.50;;;;;;4979302;28;20031;-56
2023/10/15 07:37:43;;;;;;;3.97;3.28;;;11.20;76.70;;;;;;4977978;28;20063;-54
2023/10/15 07:40:17;;;;;;;4.32;3.92;;;11.30;77.00;;;;;;4981941;28;20061;-55
2023/10/15 07:42:48;;;;;;;5.78;3.03;;;11.30;77.50;;;;;;4977064;28;20050;-54
2023/10/15 07:45:16;;;;;;;5.05;3.35;;;11.40;76.60;;;;;;4971998;28;20047;-56
2023/10/15 07:47:43;;;;;;;4.10;3.55;;;11.40;76.50;;;;;;4976675;28;20043;-55
2023/10/15 07:50:13;;;;;;;4.53;3.13;;;11.40;76.40;;;;;;4979354;28;20049;-56
2023/10/15 07:52:40;;;;;;;5.70;3.40;;;11.50;76.40;;;;;;4977224;28;20097;-56
2023/10/15 07:55:10;;;;;;;3.97;3.47;;;11.50;76.80;;;;;;4976530;28;20043;-55
2023/10/15 07:57:37;;;;;;;3.60;3.28;;;11.50;76.20;;;;;;4977951;28;20457;-55
2023/10/15 08:00:14;;;;;;;4.65;3.00;;;11.50;76.10;;;;;;4981594;28;20121;-55
2023/10/15 08:02:43;;;;;;;3.92;3.55;;;11.50;75.90;;;;;;4977335;28;20047;-57
2023/10/15 08:05:10;;;;;;;4.82;3.05;;;11.50;76.00;;;;;;4976358;28;20050;-55
2023/10/15 08:07:37;;;;;;;5.55;3.38;;;11.50;76.30;;;;;;4977837;28;20050;-55
2023/10/15 08:10:04;;;;;;;4.85;3.17;;;11.50;76.30;;;;;;4984101;28;20046;-57
2023/10/15 08:12:31;;;;;;;4.65;3.40;;;11.60;76.40;;;;;;4977640;28;20150;-53
2023/10/15 08:14:58;;;;;;;4.65;3.20;;;11.60;76.50;;;;;;4977457;28;20291;-53
2023/10/15 08:17:28;;;;;;;5.10;3.63;;;11.70;76.30;;;;;;4981955;28;20118;-56
2023/10/15 08:19:54;;;;;;;4.07;3.55;;;11.70;76.10;;;;;;4979190;28;20046;-52
2023/10/15 08:22:22;;;;;;;4.28;3.47;;;11.80;76.00;;;;;;4974626;28;20065;-53
2023/10/15 08:24:49;;;;;;;5.80;3.85;;;11.80;75.80;;;;;;4983957;28;20039;-55
2023/10/15 08:27:18;;;;;;;4.65;3.75;;;11.80;75.90;;;;;;4971910;28;20051;-54
2023/10/15 08:29:47;;;;;;;5.07;3.22;;;11.90;76.30;;;;;;4974297;28;20047;-53
2023/10/15 08:32:16;;;;;;;6.05;3.30;;;12.00;76.30;;;;;;4978020;28;20132;-56
2023/10/15 08:34:46;;;;;;;2.85;2.60;;;12.00;76.50;;;;;;4976974;28;20130;-52
2023/10/15 08:37:14;;;;;;;3.03;2.72;;;12.10;76.20;;;;;;4977793;28;20038;-54
2023/10/15 08:39:46;;;;;;;2.75;2.33;;;12.10;75.80;;;;;;4977777;28;20098;-52
2023/10/15 08:42:13;;;;;;;6.20;3.03;;;12.20;75.70;;;;;;4979933;28;20096;-53
2023/10/15 08:44:43;;;;;;;4.90;2.67;;;12.30;76.20;;;;;;4977110;28;20046;-53
2023/10/15 08:47:11;;;;;;;3.28;2.88;;;12.30;75.20;;;;;;4976338;28;20104;-55
2023/10/15 08:49:49;;;;;;;2.47;2.15;;;12.40;75.60;;;;;;4977110;28;20046;-55
2023/10/15 08:52:17;;;;;;;4.22;1.90;;;12.40;74.30;;;;;;4981466;28;20042;-54
2023/10/15 08:54:46;;;;;;;7.40;2.80;;;12.40;74.00;;;;;;4975428;28;20051;-58
2023/10/15 08:57:19;;;;;;;5.05;2.58;;;12.50;73.80;;;;;;4975099;28;20108;-56
2023/10/15 08:59:50;;;;;;;3.85;2.40;;;12.50;73.30;;;;;;4976940;28;20098;-52
2023/10/15 09:02:20;;;;;;;4.35;2.75;;;12.50;73.70;;;;;;4981092;28;20109;-54
2023/10/15 09:04:47;;;;;;;2.60;1.95;;;12.50;73.60;;;;;;4973163;28;20034;-52
2023/10/15 09:07:20;;;;;;;3.83;2.00;;;12.60;73.60;;;;;;4977268;28;20072;-55
2023/10/15 09:09:49;;;;;;;2.95;1.80;;;12.70;73.60;;;;;;4979357;28;20053;-57
2023/10/15 09:12:19;;;;;;;4.35;2.15;;;12.70;73.20;;;;;;4976451;28;20050;-56
2023/10/15 09:14:49;;;;;;;2.58;1.70;;;12.80;72.90;;;;;;4976498;28;20393;-51
2023/10/15 09:17:18;;;;;;;3.33;1.43;;;12.90;72.40;;;;;;4979443;28;20042;-56
2023/10/15 09:19:48;;;;;;;2.00;1.77;;;12.90;71.60;;;;;;4975953;28;20329;-54
2023/10/15 09:22:17;;;;;;;2.90;1.75;;;12.90;71.50;;;;;;4970113;28;20129;-55
2023/10/15 09:24:49;;;;;;;2.75;1.50;;;12.90;71.20;;;;;;4984524;28;20055;-56
2023/10/15 09:27:15;;;;;;;1.95;1.70;;;12.90;70.70;;;;;;4973232;28;20130;-55
2023/10/15 09:29:45;;;;;;;3.88;2.03;;;12.90;70.60;;;;;;4975847;28;20215;-53
2023/10/15 09:32:11;;;;;;;2.70;2.05;;;12.90;70.30;;;;;;4975801;28;20053;-55
2023/10/15 09:34:39;;;;;;;2.22;1.92;;;12.90;70.30;;;;;;4973989;28;20114;-55
2023/10/15 09:37:06;;;;;;;4.43;2.10;;;12.80;70.60;;;;;;4978182;28;20137;-55
2023/10/15 09:39:35;;;;;;;4.22;1.80;;;12.80;70.60;;;;;;4979093;28;20043;-51
2023/10/15 09:42:02;;;;;;;3.90;1.95;;;12.90;71.50;;;;;;4975101;28;20039;-59
2023/10/15 09:44:32;;;;;;;2.40;2.20;;;12.90;71.50;;;;;;4974004;28;20085;-60
2023/10/15 09:47:01;;;;;;;2.45;1.85;;;12.90;71.20;;;;;;4959654;28;20517;-58
2023/10/15 09:49:33;;;;;;;4.32;2.28;;;12.90;70.90;;;;;;4973239;28;20066;-55
2023/10/15 09:52:05;;;;;;;2.58;2.35;;;13.00;70.60;;;;;;4970502;28;20042;-54
2023/10/15 09:54:33;;;;;;;3.00;2.50;;;13.00;70.70;;;;;;4971213;28;20039;-55
2023/10/15 09:57:02;;;;;;;2.30;2.10;;;13.00;70.70;;;;;;4976659;28;20038;-55
2023/10/15 09:59:29;;;;;;;2.40;2.13;;;13.00;70.70;;;;;;4967641;28;20034;-55
2023/10/15 10:01:57;;;;;;;3.30;2.53;;;13.10;70.50;;;;;;4973112;28;20043;-52
2023/10/15 10:05:05;;;;;;;3.25;2.95;;;13.10;70.40;;;;;;4967043;28;20044;-56
2023/10/15 10:07:50;;;;;;;3.28;2.70;;;13.10;70.80;;;;;;4966718;28;20046;-54
2023/10/15 10:10:37;;;;;;;6.55;3.17;;;13.10;70.70;;;;;;4975103;28;20046;-57
2023/10/15 10:13:23;;;;;;;4.00;2.40;;;13.10;70.80;;;;;;4972522;28;20039;-55
2023/10/15 10:15:57;;;;;;;2.95;2.33;;;13.10;70.80;;;;;;4969826;28;20038;-57
2023/10/15 10:18:24;;;;;;;3.53;3.08;;;13.10;70.60;;;;;;4954398;28;20126;-55
2023/10/15 10:20:52;;;;;;;4.28;2.85;;;13.10;70.70;;;;;;4968220;28;20482;-55
2023/10/15 10:23:22;;;;;;;7.35;3.25;;;13.10;70.80;;;;;;4978088;28;20043;-57
2023/10/15 10:25:58;;;;;;;3.90;3.10;;;13.10;71.00;;;;;;4967452;28;20105;-54
2023/10/15 10:28:25;;;;;;;3.83;3.00;;;13.00;71.10;;;;;;4979507;28;20094;-54
2023/10/15 10:30:56;;;;;;;2.70;2.50;;;13.00;71.20;;;;;;4972582;28;20436;-54
2023/10/15 10:33:42;;;;;;;4.10;2.72;;;13.00;71.50;;;;;;4979086;28;20126;-57
2023/10/15 10:36:12;;;;;;;2.45;2.17;;;13.10;71.60;;;;;;4967134;28;20035;-55
2023/10/15 10:38:39;;;;;;;4.60;2.20;;;13.10;71.60;;;;;;4972290;28;20043;-54
2023/10/15 10:41:14;;;;;;;2.55;1.80;;;13.20;71.60;;;;;;4971733;28;20038;-57
2023/10/15 10:43:51;;;;;;;1.45;1.27;;;13.20;71.20;;;;;;4972091;28;20062;-56
2023/10/15 10:46:44;;;;;;;7.20;2.20;;;13.20;70.60;;;;;;4969688;28;20042;-56
2023/10/15 10:49:17;;;;;;;1.60;1.50;;;13.30;70.50;;;;;;4969721;28;20074;-55
2023/10/15 10:52:12;;;;;;;2.50;1.40;;;13.20;70.40;;;;;;4966923;28;20075;-53
2023/10/15 10:54:38;;;;;;;2.00;1.17;;;13.30;70.40;;;;;;4964346;28;20038;-54
2023/10/15 10:57:10;;;;;;;1.38;1.10;;;13.30;70.60;;;;;;4972753;28;20089;-52
2023/10/15 10:59:39;;;;;;;3.15;1.85;;;13.30;70.20;;;;;;4969750;28;20054;-55
2023/10/15 11:02:11;;;;;;;3.13;1.45;;;13.30;70.00;;;;;;4963952;28;20121;-53
2023/10/15 11:04:41;;;;;;;1.45;1.20;;;13.30;69.90;;;;;;4966814;28;20456;-55
2023/10/15 11:07:11;;;;;;;2.83;1.10;;;13.30;69.80;;;;;;4969328;28;20047;-52
2023/10/15 11:09:38;;;;;;;1.30;1.15;;;13.30;69.70;;;;;;4968832;28;20110;-52
2023/10/15 11:12:16;;;;;;;3.60;0.95;;;13.40;70.40;;;;;;4969136;28;20521;-57
2023/10/15 11:14:43;;;;;;;1.10;1.00;;;13.40;70.00;;;;;;4967250;28;20121;-53
2023/10/15 11:17:09;;;;;;;2.13;1.13;;;13.50;70.00;;;;;;4972877;28;20043;-55
2023/10/15 11:19:39;;;;;;;2.40;0.77;;;13.60;69.20;;;;;;4973987;28;20781;-55
2023/10/15 11:22:06;;;;;;;0.90;0.50;;;13.60;68.90;;;;;;4971076;28;20039;-53
2023/10/15 11:24:32;;;;;;;2.22;0.77;;;13.70;68.90;;;;;;4974614;28;20046;-56
2023/10/15 11:26:59;;;;;;;2.03;0.60;;;13.70;68.20;;;;;;4968850;28;20093;-59
2023/10/15 11:29:28;;;;;;;1.75;0.60;;;13.80;67.60;;;;;;4972622;28;20061;-57
2023/10/15 11:31:58;;;;;;;0.75;0.73;;;13.80;67.70;;;;;;4967453;28;20047;-59
2023/10/15 11:34:27;;;;;;;1.27;0.85;;;13.80;67.30;;;;;;4971036;28;20039;-55
2023/10/15 11:36:55;;;;;;;1.25;0.57;;;13.80;67.30;;;;;;4969140;28;20090;-58
2023/10/15 11:39:38;;;;;;;2.10;0.47;;;13.80;67.10;;;;;;4967718;28;20046;-56
2023/10/15 11:42:08;;;;;;;1.77;0.73;;;13.90;67.00;;;;;;4966480;28;20080;-56
2023/10/15 11:44:42;;;;;;;2.33;0.80;;;13.90;66.50;;;;;;4961474;28;20045;-53
2023/10/15 11:47:12;;;;;;;2.72;0.93;;;13.90;66.00;;;;;;4981694;28;20097;-55
2023/10/15 11:49:42;;;;;;;1.65;0.75;;;13.90;66.40;;;;;;4992047;28;20069;-56
2023/10/15 11:52:18;;;;;;;1.77;0.77;;;13.90;66.20;;;;;;4971579;28;20043;-54
2023/10/15 11:54:50;;;;;;;1.30;0.57;;;13.90;66.20;;;;;;4978021;28;20454;-54
2023/10/15 11:57:25;;;;;;;1.20;0.82;;;13.90;66.40;;;;;;4952142;28;20126;-55
2023/10/15 11:59:53;;;;;;;1.42;0.43;;;14.00;65.90;;;;;;4965644;28;20560;-55
2023/10/15 12:02:25;;;;;;;2.00;0.50;;;14.00;65.50;;;;;;4989198;28;20122;-56
2023/10/15 12:04:57;;;;;;;2.78;0.95;;;14.10;65.50;;;;;;4973380;28;20125;-54
2023/10/15 12:07:26;;;;;;;2.40;0.47;;;14.10;65.90;;;;;;4990336;28;20851;-57
2023/10/15 12:09:53;;;;;;;1.70;0.40;;;14.10;65.50;;;;;;4975087;28;20727;-54
2023/10/15 12:12:19;;;;;;;1.27;0.82;;;14.20;64.70;;;;;;4968887;28;20039;-52
2023/10/15 12:14:46;;;;;;;1.70;0.77;;;14.20;64.80;;;;;;4970498;28;20047;-54
2023/10/15 12:17:15;;;;;;;0.98;0.50;;;14.20;64.40;;;;;;4981725;28;20052;-55
2023/10/15 12:19:44;;;;;;;3.92;0.52;;;14.20;64.90;;;;;;4976653;28;20038;-51
2023/10/15 12:22:14;;;;;;;2.13;0.88;;;14.20;64.70;;;;;;4982327;28;20038;-51
2023/10/15 12:24:42;;;;;;;1.70;0.70;;;14.20;64.60;;;;;;4989931;28;20074;-54
2023/10/15 12:27:09;;;;;;;51.58;10.40;;;14.30;64.70;;;;;;4975294;28;20042;-52
2023/10/15 12:29:38;;;;;;;2.72;1.05;;;14.30;64.30;;;;;;4988667;28;20053;-53
2023/10/15 12:32:09;;;;;;;1.25;0.50;;;14.30;64.40;;;;;;4981917;28;20525;-52
2023/10/15 12:34:37;;;;;;;1.90;0.90;;;14.30;64.60;;;;;;4979036;28;20042;-56
2023/10/15 12:37:08;;;;;;;1.75;0.63;;;14.30;64.40;;;;;;4974969;28;20101;-53
2023/10/15 12:39:40;;;;;;;2.15;0.77;;;14.30;64.50;;;;;;4976537;28;20038;-57
2023/10/15 12:42:11;;;;;;;6.63;0.80;;;14.30;64.10;;;;;;4974858;28;20500;-52
2023/10/15 12:44:44;;;;;;;0.90;0.60;;;14.30;64.30;;;;;;4974251;28;20050;-53
2023/10/15 12:47:12;;;;;;;4.88;1.45;;;14.30;63.80;;;;;;4973413;28;20064;-54
2023/10/15 12:49:42;;;;;;;3.92;0.90;;;14.30;63.80;;;;;;4977901;28;20120;-53
2023/10/15 12:52:09;;;;;;;1.27;0.90;;;14.40;63.30;;;;;;4972778;28;20042;-55
2023/10/15 12:54:36;;;;;;;2.35;0.40;;;14.40;63.20;;;;;;4980291;28;20073;-55
2023/10/15 12:57:04;;;;;;;0.85;0.40;;;14.40;62.90;;;;;;4971553;28;20509;-54
2023/10/15 12:59:31;;;;;;;1.23;0.70;;;14.40;63.10;;;;;;4984618;28;20420;-53
2023/10/15 13:02:03;;;;;;;3.35;0.80;;;14.40;63.10;;;;;;4976958;28;20038;-54
2023/10/15 13:04:31;;;;;;;0.57;0.35;;;14.50;63.60;;;;;;4986816;28;20077;-57
2023/10/15 13:06:57;;;;;;;1.23;0.60;;;14.60;63.40;;;;;;4979047;28;20042;-54
2023/10/15 13:09:32;;;;;;;1.90;0.60;;;14.70;63.00;;;;;;4980621;28;20046;-57
2023/10/15 13:12:01;;;;;;;2.88;0.57;;;14.80;62.50;;;;;;4977821;28;20042;-56
2023/10/15 13:14:28;;;;;;;1.00;0.45;;;14.90;62.00;;;;;;4981711;28;20050;-57
2023/10/15 13:16:58;;;;;;;2.10;0.30;;;15.10;61.90;;;;;;4970937;28;20144;-55